Kimper, KY (41539)

08:00 AM EDT em 29 de Julho de 2016 (GMT -0400)
Upper Chloe Road | | Change Station

Elev 758 ft 37.45 °N, 82.48 °W | Updated 3 seconds ago

Overcast
Céu Encoberto
70.3 °F
Aparente 70.3 °F
N
0.0
Vento Variável Vento de SSE
Gusts 0.0 mph

Hoje
Máxima -- | Mínima -- °F
--% Possibilidade de Precip.
Ontem
Máxima -- | Mínima -- °F
Precip. -- pol
Pressão 30.00 pol
Visibilidade 10.0 milhas
Nuvens Céu Encoberto 400 ft
Ponto de Orvalho 70 °F
Humidade 99%
Chuva 0.00 pol
Altura de Neve Não disponível
6:31 AM 8:39 PM
Quarto minguante, 22% visible
METAR KSJS 291155Z AUTO 22003KT 10SM OVC004 21/21 A3000 RMK AO2 T02120211 10213 20210
Pressão 30.00 pol
Visibilidade 10.0 milhas
Nuvens Céu Encoberto 400 ft
Ponto de Orvalho 70 °F
Humidade 99%
Chuva 0.00 pol
Altura de Neve Não disponível
6:31 AM 8:39 PM
Quarto minguante, 22% visible
METAR KSJS 291155Z AUTO 22003KT 10SM OVC004 21/21 A3000 RMK AO2 T02120211 10213 20210

10-Day Weather Forecast

Almanac

Astronomia

Jul. 29, 2016 Nascer Pôr
Hora atual
Crepúsculo civil
Crepúsculo náutico
Crepúsculo astronómico
Lua
Comprimento da luz visível
Duração do Dia
Tomorrow will be .
, % of the Moon is Illuminated

Extremos de Hoje

situação na parte mais alta situação na parte mais baixa

Community

WunderPhotos

Upload Photos

1,928,325 fotografias inseridas!

WunderBlog® & News

Nearby

Qualidade do Ar

  Qualidade do Ar Índice da Q.A. Poluente
Not available.

Altura da Neve

Estação altura Altitude

Actividade Sísmisca

Cidade Distância Mag. Hora & Data
Mínima magnitude apresentada é 2.5.

Temperaturas das Águas Costeiras

Local Temperatura

Stations

Estações Meteorológicas Próximas

Localização da Estação Temp. Sensação Térmica Ponto de Orvalho Humidade Vento Precip. Elev Actualizado Tipo
                   

Watches & Warnings

There are currently no watches in effect.